sensor_id;sensor_type;location;lat;lon;timestamp;P1;durP1;ratioP1;P2;durP2;ratioP2
18360;SDS011;9308;48.550;9.108;2023-02-13T00:01:29;18.10;;;15.70;;
18360;SDS011;9308;48.550;9.108;2023-02-13T00:03:55;22.33;;;17.57;;
18360;SDS011;9308;48.550;9.108;2023-02-13T00:06:21;20.47;;;16.10;;
18360;SDS011;9308;48.550;9.108;2023-02-13T00:08:47;20.30;;;16.67;;
18360;SDS011;9308;48.550;9.108;2023-02-13T00:11:13;20.33;;;17.10;;
18360;SDS011;9308;48.550;9.108;2023-02-13T00:13:39;21.80;;;17.83;;
18360;SDS011;9308;48.550;9.108;2023-02-13T00:16:04;19.10;;;16.60;;
18360;SDS011;9308;48.550;9.108;2023-02-13T00:18:35;20.00;;;17.47;;
18360;SDS011;9308;48.550;9.108;2023-02-13T00:21:03;23.00;;;19.33;;
18360;SDS011;9308;48.550;9.108;2023-02-13T00:23:33;19.70;;;17.07;;
18360;SDS011;9308;48.550;9.108;2023-02-13T00:26:00;19.83;;;17.70;;
18360;SDS011;9308;48.550;9.108;2023-02-13T00:28:31;22.10;;;18.10;;
18360;SDS011;9308;48.550;9.108;2023-02-13T00:31:16;22.47;;;18.63;;
18360;SDS011;9308;48.550;9.108;2023-02-13T00:33:43;22.80;;;18.20;;
18360;SDS011;9308;48.550;9.108;2023-02-13T00:36:09;25.87;;;20.17;;
18360;SDS011;9308;48.550;9.108;2023-02-13T00:38:37;23.77;;;18.90;;
18360;SDS011;9308;48.550;9.108;2023-02-13T00:41:03;25.37;;;20.53;;
18360;SDS011;9308;48.550;9.108;2023-02-13T00:43:30;23.63;;;20.77;;
18360;SDS011;9308;48.550;9.108;2023-02-13T00:45:56;27.70;;;24.53;;
18360;SDS011;9308;48.550;9.108;2023-02-13T00:48:23;27.73;;;23.73;;
18360;SDS011;9308;48.550;9.108;2023-02-13T00:50:49;33.83;;;22.87;;
18360;SDS011;9308;48.550;9.108;2023-02-13T00:53:16;29.33;;;22.70;;
18360;SDS011;9308;48.550;9.108;2023-02-13T00:55:43;29.13;;;22.80;;
18360;SDS011;9308;48.550;9.108;2023-02-13T00:58:08;27.17;;;22.10;;
18360;SDS011;9308;48.550;9.108;2023-02-13T01:00:34;25.53;;;20.60;;
18360;SDS011;9308;48.550;9.108;2023-02-13T01:02:59;31.80;;;23.27;;
18360;SDS011;9308;48.550;9.108;2023-02-13T01:05:24;32.20;;;23.30;;
18360;SDS011;9308;48.550;9.108;2023-02-13T01:07:52;35.33;;;25.87;;
18360;SDS011;9308;48.550;9.108;2023-02-13T01:10:17;29.77;;;22.57;;
18360;SDS011;9308;48.550;9.108;2023-02-13T01:12:42;28.13;;;21.97;;
18360;SDS011;9308;48.550;9.108;2023-02-13T01:15:08;28.80;;;22.10;;
18360;SDS011;9308;48.550;9.108;2023-02-13T01:17:33;31.83;;;23.43;;
18360;SDS011;9308;48.550;9.108;2023-02-13T01:19:59;29.27;;;22.17;;
18360;SDS011;9308;48.550;9.108;2023-02-13T01:22:24;31.20;;;22.30;;
18360;SDS011;9308;48.550;9.108;2023-02-13T01:24:50;33.70;;;23.27;;
18360;SDS011;9308;48.550;9.108;2023-02-13T01:27:15;27.07;;;21.93;;
18360;SDS011;9308;48.550;9.108;2023-02-13T01:29:40;29.50;;;21.90;;
18360;SDS011;9308;48.550;9.108;2023-02-13T01:32:06;29.23;;;22.13;;
18360;SDS011;9308;48.550;9.108;2023-02-13T01:34:32;30.80;;;22.30;;
18360;SDS011;9308;48.550;9.108;2023-02-13T01:36:57;34.40;;;24.37;;
18360;SDS011;9308;48.550;9.108;2023-02-13T01:39:23;28.10;;;21.90;;
18360;SDS011;9308;48.550;9.108;2023-02-13T01:41:49;26.23;;;22.10;;
18360;SDS011;9308;48.550;9.108;2023-02-13T01:52:50;32.50;;;23.30;;
18360;SDS011;9308;48.550;9.108;2023-02-13T01:55:38;31.90;;;25.37;;
18360;SDS011;9308;48.550;9.108;2023-02-13T01:58:15;32.37;;;23.50;;
18360;SDS011;9308;48.550;9.108;2023-02-13T02:00:45;32.03;;;24.20;;
18360;SDS011;9308;48.550;9.108;2023-02-13T02:06:14;33.90;;;26.20;;
18360;SDS011;9308;48.550;9.108;2023-02-13T02:08:43;37.83;;;26.57;;
18360;SDS011;9308;48.550;9.108;2023-02-13T02:11:21;36.60;;;27.10;;
18360;SDS011;9308;48.550;9.108;2023-02-13T02:13:53;34.20;;;25.43;;
18360;SDS011;9308;48.550;9.108;2023-02-13T02:16:18;39.87;;;27.60;;
18360;SDS011;9308;48.550;9.108;2023-02-13T02:18:43;32.90;;;25.30;;
18360;SDS011;9308;48.550;9.108;2023-02-13T02:40:26;41.30;;;30.77;;
18360;SDS011;9308;48.550;9.108;2023-02-13T02:46:03;38.97;;;29.43;;
18360;SDS011;9308;48.550;9.108;2023-02-13T02:48:42;46.13;;;32.57;;
18360;SDS011;9308;48.550;9.108;2023-02-13T02:51:40;43.63;;;31.50;;
18360;SDS011;9308;48.550;9.108;2023-02-13T02:54:22;46.37;;;31.20;;
18360;SDS011;9308;48.550;9.108;2023-02-13T02:57:16;51.10;;;34.73;;
18360;SDS011;9308;48.550;9.108;2023-02-13T02:59:46;50.70;;;33.90;;
18360;SDS011;9308;48.550;9.108;2023-02-13T03:02:33;44.73;;;31.47;;
18360;SDS011;9308;48.550;9.108;2023-02-13T03:05:29;44.63;;;30.53;;
18360;SDS011;9308;48.550;9.108;2023-02-13T03:08:16;44.20;;;29.47;;
18360;SDS011;9308;48.550;9.108;2023-02-13T03:11:05;45.43;;;30.70;;
18360;SDS011;9308;48.550;9.108;2023-02-13T03:13:49;44.93;;;30.60;;
18360;SDS011;9308;48.550;9.108;2023-02-13T03:16:15;42.33;;;29.73;;
18360;SDS011;9308;48.550;9.108;2023-02-13T03:19:03;48.07;;;30.53;;
18360;SDS011;9308;48.550;9.108;2023-02-13T03:21:52;41.40;;;30.57;;
18360;SDS011;9308;48.550;9.108;2023-02-13T03:27:49;38.97;;;27.50;;
18360;SDS011;9308;48.550;9.108;2023-02-13T03:30:51;40.10;;;26.80;;
18360;SDS011;9308;48.550;9.108;2023-02-13T03:39:43;38.20;;;26.27;;
18360;SDS011;9308;48.550;9.108;2023-02-13T03:42:18;37.30;;;26.87;;
18360;SDS011;9308;48.550;9.108;2023-02-13T03:45:11;35.43;;;26.80;;
18360;SDS011;9308;48.550;9.108;2023-02-13T03:48:02;38.77;;;27.90;;
18360;SDS011;9308;48.550;9.108;2023-02-13T03:50:35;35.63;;;26.00;;
18360;SDS011;9308;48.550;9.108;2023-02-13T03:53:05;41.23;;;28.63;;
18360;SDS011;9308;48.550;9.108;2023-02-13T03:55:37;40.93;;;28.03;;
18360;SDS011;9308;48.550;9.108;2023-02-13T03:58:27;39.10;;;26.83;;
18360;SDS011;9308;48.550;9.108;2023-02-13T04:01:16;44.93;;;30.20;;
18360;SDS011;9308;48.550;9.108;2023-02-13T04:03:45;36.80;;;28.53;;
18360;SDS011;9308;48.550;9.108;2023-02-13T04:06:26;40.70;;;28.87;;
18360;SDS011;9308;48.550;9.108;2023-02-13T04:08:56;43.90;;;30.20;;
18360;SDS011;9308;48.550;9.108;2023-02-13T04:11:32;40.00;;;30.40;;
18360;SDS011;9308;48.550;9.108;2023-02-13T04:14:10;40.73;;;29.50;;
18360;SDS011;9308;48.550;9.108;2023-02-13T04:16:41;36.80;;;29.00;;
18360;SDS011;9308;48.550;9.108;2023-02-13T04:19:09;47.90;;;29.70;;
18360;SDS011;9308;48.550;9.108;2023-02-13T04:21:37;40.77;;;28.53;;
18360;SDS011;9308;48.550;9.108;2023-02-13T04:24:04;38.67;;;26.70;;
18360;SDS011;9308;48.550;9.108;2023-02-13T04:26:37;41.90;;;28.07;;
18360;SDS011;9308;48.550;9.108;2023-02-13T04:29:05;38.83;;;26.30;;
18360;SDS011;9308;48.550;9.108;2023-02-13T04:31:31;35.20;;;25.07;;
18360;SDS011;9308;48.550;9.108;2023-02-13T04:33:57;31.23;;;23.10;;
18360;SDS011;9308;48.550;9.108;2023-02-13T04:36:22;32.80;;;24.10;;
18360;SDS011;9308;48.550;9.108;2023-02-13T04:38:48;31.90;;;23.43;;
18360;SDS011;9308;48.550;9.108;2023-02-13T04:41:14;32.37;;;23.27;;
18360;SDS011;9308;48.550;9.108;2023-02-13T04:43:40;31.33;;;24.50;;
18360;SDS011;9308;48.550;9.108;2023-02-13T04:46:05;38.10;;;26.03;;
18360;SDS011;9308;48.550;9.108;2023-02-13T04:48:30;34.63;;;23.83;;
18360;SDS011;9308;48.550;9.108;2023-02-13T04:50:56;34.63;;;24.97;;
18360;SDS011;9308;48.550;9.108;2023-02-13T04:53:21;33.60;;;24.70;;
18360;SDS011;9308;48.550;9.108;2023-02-13T04:55:47;37.97;;;24.40;;
18360;SDS011;9308;48.550;9.108;2023-02-13T04:58:12;36.30;;;24.87;;
18360;SDS011;9308;48.550;9.108;2023-02-13T05:00:37;35.73;;;25.07;;
18360;SDS011;9308;48.550;9.108;2023-02-13T05:03:04;36.43;;;25.17;;
18360;SDS011;9308;48.550;9.108;2023-02-13T05:05:31;34.77;;;24.47;;
18360;SDS011;9308;48.550;9.108;2023-02-13T05:07:57;33.77;;;23.67;;
18360;SDS011;9308;48.550;9.108;2023-02-13T05:10:22;26.67;;;21.10;;
18360;SDS011;9308;48.550;9.108;2023-02-13T05:12:47;33.60;;;25.00;;
18360;SDS011;9308;48.550;9.108;2023-02-13T05:15:13;27.20;;;22.23;;
18360;SDS011;9308;48.550;9.108;2023-02-13T05:17:38;35.87;;;24.87;;
18360;SDS011;9308;48.550;9.108;2023-02-13T05:20:04;31.50;;;24.70;;
18360;SDS011;9308;48.550;9.108;2023-02-13T05:22:30;33.53;;;25.80;;
18360;SDS011;9308;48.550;9.108;2023-02-13T05:25:14;32.60;;;25.77;;
18360;SDS011;9308;48.550;9.108;2023-02-13T05:27:40;30.87;;;23.90;;
18360;SDS011;9308;48.550;9.108;2023-02-13T05:30:06;29.53;;;22.20;;
18360;SDS011;9308;48.550;9.108;2023-02-13T05:32:31;30.87;;;23.27;;
18360;SDS011;9308;48.550;9.108;2023-02-13T05:34:57;26.93;;;20.60;;
18360;SDS011;9308;48.550;9.108;2023-02-13T05:37:22;26.60;;;20.83;;
18360;SDS011;9308;48.550;9.108;2023-02-13T05:39:47;22.97;;;18.63;;
18360;SDS011;9308;48.550;9.108;2023-02-13T05:42:13;24.60;;;18.53;;
18360;SDS011;9308;48.550;9.108;2023-02-13T05:44:38;29.60;;;20.20;;
18360;SDS011;9308;48.550;9.108;2023-02-13T05:47:04;25.73;;;19.83;;
18360;SDS011;9308;48.550;9.108;2023-02-13T05:49:29;25.00;;;19.13;;
18360;SDS011;9308;48.550;9.108;2023-02-13T05:51:55;27.10;;;20.43;;
18360;SDS011;9308;48.550;9.108;2023-02-13T05:54:20;26.83;;;22.37;;
18360;SDS011;9308;48.550;9.108;2023-02-13T05:56:46;30.90;;;23.70;;
18360;SDS011;9308;48.550;9.108;2023-02-13T05:59:11;24.03;;;20.97;;
18360;SDS011;9308;48.550;9.108;2023-02-13T06:01:37;25.00;;;21.90;;
18360;SDS011;9308;48.550;9.108;2023-02-13T06:04:03;23.50;;;19.60;;
18360;SDS011;9308;48.550;9.108;2023-02-13T06:06:28;24.63;;;19.30;;
18360;SDS011;9308;48.550;9.108;2023-02-13T06:08:54;24.10;;;20.50;;
18360;SDS011;9308;48.550;9.108;2023-02-13T06:11:19;24.40;;;20.40;;
18360;SDS011;9308;48.550;9.108;2023-02-13T06:13:45;26.37;;;19.83;;
18360;SDS011;9308;48.550;9.108;2023-02-13T06:16:10;24.00;;;19.27;;
18360;SDS011;9308;48.550;9.108;2023-02-13T06:18:37;28.57;;;22.23;;
18360;SDS011;9308;48.550;9.108;2023-02-13T06:21:03;26.67;;;20.00;;
18360;SDS011;9308;48.550;9.108;2023-02-13T06:23:29;24.87;;;19.33;;
18360;SDS011;9308;48.550;9.108;2023-02-13T06:25:54;23.70;;;19.73;;
18360;SDS011;9308;48.550;9.108;2023-02-13T06:28:20;27.10;;;20.43;;
18360;SDS011;9308;48.550;9.108;2023-02-13T06:30:46;24.20;;;19.43;;
18360;SDS011;9308;48.550;9.108;2023-02-13T06:33:12;23.67;;;18.20;;
18360;SDS011;9308;48.550;9.108;2023-02-13T06:35:38;27.00;;;20.07;;
18360;SDS011;9308;48.550;9.108;2023-02-13T06:38:04;28.60;;;20.07;;
18360;SDS011;9308;48.550;9.108;2023-02-13T06:40:29;23.90;;;18.50;;
18360;SDS011;9308;48.550;9.108;2023-02-13T06:42:55;23.57;;;18.33;;
18360;SDS011;9308;48.550;9.108;2023-02-13T06:45:20;35.03;;;27.93;;
18360;SDS011;9308;48.550;9.108;2023-02-13T06:47:46;38.93;;;28.10;;
18360;SDS011;9308;48.550;9.108;2023-02-13T06:50:13;37.27;;;31.07;;
18360;SDS011;9308;48.550;9.108;2023-02-13T06:52:44;37.53;;;29.97;;
18360;SDS011;9308;48.550;9.108;2023-02-13T06:55:10;38.60;;;29.10;;
18360;SDS011;9308;48.550;9.108;2023-02-13T06:57:36;37.57;;;26.97;;
18360;SDS011;9308;48.550;9.108;2023-02-13T07:00:01;34.50;;;24.63;;
18360;SDS011;9308;48.550;9.108;2023-02-13T07:02:30;27.37;;;22.20;;
18360;SDS011;9308;48.550;9.108;2023-02-13T07:04:56;30.77;;;24.07;;
18360;SDS011;9308;48.550;9.108;2023-02-13T07:07:22;33.63;;;24.27;;
18360;SDS011;9308;48.550;9.108;2023-02-13T07:09:47;29.93;;;23.13;;
18360;SDS011;9308;48.550;9.108;2023-02-13T07:12:13;26.47;;;22.37;;
18360;SDS011;9308;48.550;9.108;2023-02-13T07:14:38;28.37;;;22.23;;
18360;SDS011;9308;48.550;9.108;2023-02-13T07:17:04;24.20;;;20.03;;
18360;SDS011;9308;48.550;9.108;2023-02-13T07:19:30;27.03;;;20.00;;
18360;SDS011;9308;48.550;9.108;2023-02-13T07:21:56;23.73;;;18.20;;
18360;SDS011;9308;48.550;9.108;2023-02-13T07:24:21;23.30;;;18.03;;
18360;SDS011;9308;48.550;9.108;2023-02-13T07:26:47;25.10;;;18.57;;
18360;SDS011;9308;48.550;9.108;2023-02-13T07:29:12;24.93;;;18.83;;
18360;SDS011;9308;48.550;9.108;2023-02-13T07:31:38;25.60;;;21.53;;
18360;SDS011;9308;48.550;9.108;2023-02-13T07:34:04;32.87;;;27.40;;
18360;SDS011;9308;48.550;9.108;2023-02-13T07:36:29;31.27;;;27.53;;
18360;SDS011;9308;48.550;9.108;2023-02-13T07:38:54;30.33;;;24.97;;
18360;SDS011;9308;48.550;9.108;2023-02-13T07:41:20;31.03;;;24.13;;
18360;SDS011;9308;48.550;9.108;2023-02-13T07:43:45;24.40;;;21.80;;
18360;SDS011;9308;48.550;9.108;2023-02-13T07:46:11;21.77;;;19.47;;
18360;SDS011;9308;48.550;9.108;2023-02-13T07:48:36;22.20;;;19.63;;
18360;SDS011;9308;48.550;9.108;2023-02-13T07:51:02;21.20;;;18.30;;
18360;SDS011;9308;48.550;9.108;2023-02-13T07:53:30;22.87;;;19.10;;
18360;SDS011;9308;48.550;9.108;2023-02-13T07:55:56;21.03;;;18.87;;
18360;SDS011;9308;48.550;9.108;2023-02-13T07:58:21;24.53;;;20.33;;
18360;SDS011;9308;48.550;9.108;2023-02-13T08:00:47;22.07;;;19.67;;
18360;SDS011;9308;48.550;9.108;2023-02-13T08:03:13;24.20;;;21.70;;
18360;SDS011;9308;48.550;9.108;2023-02-13T08:05:38;23.87;;;21.20;;
18360;SDS011;9308;48.550;9.108;2023-02-13T08:08:05;24.23;;;21.80;;
18360;SDS011;9308;48.550;9.108;2023-02-13T08:10:30;24.17;;;21.57;;
18360;SDS011;9308;48.550;9.108;2023-02-13T08:13:14;20.87;;;18.77;;
18360;SDS011;9308;48.550;9.108;2023-02-13T08:15:40;22.97;;;19.47;;
18360;SDS011;9308;48.550;9.108;2023-02-13T08:18:08;21.30;;;19.00;;
18360;SDS011;9308;48.550;9.108;2023-02-13T08:20:34;21.50;;;19.20;;
18360;SDS011;9308;48.550;9.108;2023-02-13T08:23:03;23.60;;;19.43;;
18360;SDS011;9308;48.550;9.108;2023-02-13T08:25:30;20.00;;;16.87;;
18360;SDS011;9308;48.550;9.108;2023-02-13T08:27:55;20.03;;;17.73;;
18360;SDS011;9308;48.550;9.108;2023-02-13T08:30:21;18.40;;;16.50;;
18360;SDS011;9308;48.550;9.108;2023-02-13T08:32:46;21.47;;;18.00;;
18360;SDS011;9308;48.550;9.108;2023-02-13T08:35:11;20.80;;;18.13;;
18360;SDS011;9308;48.550;9.108;2023-02-13T08:37:37;20.43;;;17.77;;
18360;SDS011;9308;48.550;9.108;2023-02-13T08:40:02;21.37;;;19.17;;
18360;SDS011;9308;48.550;9.108;2023-02-13T08:42:28;20.90;;;18.63;;
18360;SDS011;9308;48.550;9.108;2023-02-13T08:44:53;23.23;;;19.17;;
18360;SDS011;9308;48.550;9.108;2023-02-13T08:47:18;23.00;;;20.50;;
18360;SDS011;9308;48.550;9.108;2023-02-13T08:49:44;21.00;;;18.80;;
18360;SDS011;9308;48.550;9.108;2023-02-13T08:52:10;21.50;;;19.20;;
18360;SDS011;9308;48.550;9.108;2023-02-13T08:54:35;21.43;;;17.93;;
18360;SDS011;9308;48.550;9.108;2023-02-13T08:57:00;24.37;;;19.50;;
18360;SDS011;9308;48.550;9.108;2023-02-13T08:59:26;20.87;;;18.67;;
18360;SDS011;9308;48.550;9.108;2023-02-13T09:01:51;21.57;;;18.53;;
18360;SDS011;9308;48.550;9.108;2023-02-13T09:04:17;25.20;;;19.97;;
18360;SDS011;9308;48.550;9.108;2023-02-13T09:06:43;20.60;;;18.50;;
18360;SDS011;9308;48.550;9.108;2023-02-13T09:09:08;23.57;;;19.33;;
18360;SDS011;9308;48.550;9.108;2023-02-13T09:11:34;20.20;;;18.20;;
18360;SDS011;9308;48.550;9.108;2023-02-13T09:14:00;22.40;;;18.90;;
18360;SDS011;9308;48.550;9.108;2023-02-13T09:16:25;20.17;;;18.03;;
18360;SDS011;9308;48.550;9.108;2023-02-13T09:18:50;22.13;;;18.60;;
18360;SDS011;9308;48.550;9.108;2023-02-13T09:21:16;20.90;;;17.37;;
18360;SDS011;9308;48.550;9.108;2023-02-13T09:23:43;19.67;;;17.57;;
18360;SDS011;9308;48.550;9.108;2023-02-13T09:26:10;17.33;;;15.50;;
18360;SDS011;9308;48.550;9.108;2023-02-13T09:28:37;18.60;;;16.70;;
18360;SDS011;9308;48.550;9.108;2023-02-13T09:31:07;18.20;;;16.10;;
18360;SDS011;9308;48.550;9.108;2023-02-13T09:33:33;19.50;;;16.87;;
18360;SDS011;9308;48.550;9.108;2023-02-13T09:36:02;18.40;;;16.07;;
18360;SDS011;9308;48.550;9.108;2023-02-13T09:38:29;17.33;;;15.53;;
18360;SDS011;9308;48.550;9.108;2023-02-13T09:40:56;17.20;;;15.40;;
18360;SDS011;9308;48.550;9.108;2023-02-13T09:43:27;18.30;;;15.70;;
18360;SDS011;9308;48.550;9.108;2023-02-13T09:45:55;19.57;;;17.57;;
18360;SDS011;9308;48.550;9.108;2023-02-13T09:48:28;17.40;;;15.50;;
18360;SDS011;9308;48.550;9.108;2023-02-13T09:50:57;18.50;;;15.70;;
18360;SDS011;9308;48.550;9.108;2023-02-13T09:53:23;16.60;;;14.77;;
18360;SDS011;9308;48.550;9.108;2023-02-13T09:56:07;17.30;;;15.50;;
18360;SDS011;9308;48.550;9.108;2023-02-13T09:58:45;16.27;;;13.90;;
18360;SDS011;9308;48.550;9.108;2023-02-13T10:01:35;17.83;;;14.20;;
18360;SDS011;9308;48.550;9.108;2023-02-13T10:06:39;16.93;;;14.10;;
18360;SDS011;9308;48.550;9.108;2023-02-13T10:09:20;16.40;;;14.63;;
18360;SDS011;9308;48.550;9.108;2023-02-13T10:12:07;17.30;;;14.10;;
18360;SDS011;9308;48.550;9.108;2023-02-13T10:17:23;17.93;;;14.37;;
18360;SDS011;9308;48.550;9.108;2023-02-13T10:20:02;15.13;;;13.40;;
18360;SDS011;9308;48.550;9.108;2023-02-13T10:22:37;16.60;;;13.67;;
18360;SDS011;9308;48.550;9.108;2023-02-13T10:27:54;15.30;;;13.60;;
18360;SDS011;9308;48.550;9.108;2023-02-13T10:30:31;16.60;;;14.87;;
18360;SDS011;9308;48.550;9.108;2023-02-13T10:33:00;15.30;;;13.63;;
18360;SDS011;9308;48.550;9.108;2023-02-13T10:35:52;19.93;;;15.80;;
18360;SDS011;9308;48.550;9.108;2023-02-13T10:38:27;14.80;;;13.30;;
18360;SDS011;9308;48.550;9.108;2023-02-13T10:43:46;15.20;;;13.50;;
18360;SDS011;9308;48.550;9.108;2023-02-13T10:54:56;15.57;;;14.07;;
18360;SDS011;9308;48.550;9.108;2023-02-13T11:00:38;14.90;;;13.30;;
18360;SDS011;9308;48.550;9.108;2023-02-13T11:03:17;13.17;;;11.83;;
18360;SDS011;9308;48.550;9.108;2023-02-13T11:05:46;14.37;;;13.07;;
18360;SDS011;9308;48.550;9.108;2023-02-13T11:08:17;14.73;;;13.23;;
18360;SDS011;9308;48.550;9.108;2023-02-13T11:10:43;15.13;;;13.50;;
18360;SDS011;9308;48.550;9.108;2023-02-13T11:13:19;13.60;;;12.20;;
18360;SDS011;9308;48.550;9.108;2023-02-13T11:18:38;13.30;;;11.90;;
18360;SDS011;9308;48.550;9.108;2023-02-13T11:23:35;13.40;;;12.10;;
18360;SDS011;9308;48.550;9.108;2023-02-13T11:26:11;12.37;;;11.17;;
18360;SDS011;9308;48.550;9.108;2023-02-13T11:28:52;13.83;;;12.53;;
18360;SDS011;9308;48.550;9.108;2023-02-13T11:33:50;14.20;;;12.80;;
18360;SDS011;9308;48.550;9.108;2023-02-13T11:36:21;13.77;;;12.37;;
18360;SDS011;9308;48.550;9.108;2023-02-13T11:38:59;13.07;;;11.77;;
18360;SDS011;9308;48.550;9.108;2023-02-13T11:41:25;13.13;;;11.80;;
18360;SDS011;9308;48.550;9.108;2023-02-13T11:43:53;14.10;;;12.80;;
18360;SDS011;9308;48.550;9.108;2023-02-13T11:46:25;14.13;;;12.63;;
18360;SDS011;9308;48.550;9.108;2023-02-13T11:54:04;13.90;;;12.60;;
18360;SDS011;9308;48.550;9.108;2023-02-13T11:56:53;11.97;;;10.87;;
18360;SDS011;9308;48.550;9.108;2023-02-13T11:59:21;13.07;;;11.83;;
18360;SDS011;9308;48.550;9.108;2023-02-13T12:02:00;13.17;;;11.90;;
18360;SDS011;9308;48.550;9.108;2023-02-13T12:04:27;14.83;;;13.33;;
18360;SDS011;9308;48.550;9.108;2023-02-13T12:06:57;13.23;;;11.83;;
18360;SDS011;9308;48.550;9.108;2023-02-13T12:09:28;12.33;;;11.17;;
18360;SDS011;9308;48.550;9.108;2023-02-13T12:11:56;13.30;;;12.10;;
18360;SDS011;9308;48.550;9.108;2023-02-13T12:14:58;13.73;;;12.37;;
18360;SDS011;9308;48.550;9.108;2023-02-13T12:17:20;13.07;;;11.87;;
18360;SDS011;9308;48.550;9.108;2023-02-13T12:19:48;13.53;;;12.23;;
18360;SDS011;9308;48.550;9.108;2023-02-13T12:27:37;14.00;;;12.70;;
18360;SDS011;9308;48.550;9.108;2023-02-13T12:30:37;13.33;;;12.07;;
18360;SDS011;9308;48.550;9.108;2023-02-13T12:36:20;13.77;;;12.50;;
18360;SDS011;9308;48.550;9.108;2023-02-13T12:44:18;14.27;;;12.97;;
18360;SDS011;9308;48.550;9.108;2023-02-13T12:47:22;13.40;;;12.20;;
18360;SDS011;9308;48.550;9.108;2023-02-13T13:04:13;13.00;;;11.80;;
18360;SDS011;9308;48.550;9.108;2023-02-13T13:20:48;12.07;;;10.97;;
18360;SDS011;9308;48.550;9.108;2023-02-13T13:23:42;11.70;;;10.70;;
18360;SDS011;9308;48.550;9.108;2023-02-13T13:28:58;12.37;;;11.27;;
18360;SDS011;9308;48.550;9.108;2023-02-13T13:31:26;12.43;;;11.30;;
18360;SDS011;9308;48.550;9.108;2023-02-13T13:33:52;12.23;;;11.13;;
18360;SDS011;9308;48.550;9.108;2023-02-13T13:36:35;13.17;;;11.87;;
18360;SDS011;9308;48.550;9.108;2023-02-13T13:39:17;13.03;;;11.83;;
18360;SDS011;9308;48.550;9.108;2023-02-13T13:41:47;12.97;;;11.77;;
18360;SDS011;9308;48.550;9.108;2023-02-13T13:47:38;12.90;;;11.40;;
18360;SDS011;9308;48.550;9.108;2023-02-13T13:50:05;13.00;;;11.73;;
18360;SDS011;9308;48.550;9.108;2023-02-13T14:03:43;12.70;;;11.37;;
18360;SDS011;9308;48.550;9.108;2023-02-13T14:06:16;13.60;;;12.20;;
18360;SDS011;9308;48.550;9.108;2023-02-13T14:16:51;13.60;;;12.20;;
18360;SDS011;9308;48.550;9.108;2023-02-13T14:19:24;13.37;;;12.07;;
18360;SDS011;9308;48.550;9.108;2023-02-13T14:21:53;13.67;;;11.60;;
18360;SDS011;9308;48.550;9.108;2023-02-13T14:24:39;12.47;;;10.37;;
18360;SDS011;9308;48.550;9.108;2023-02-13T14:27:14;11.87;;;10.80;;
18360;SDS011;9308;48.550;9.108;2023-02-13T14:29:46;13.30;;;11.30;;
18360;SDS011;9308;48.550;9.108;2023-02-13T14:32:21;11.57;;;10.37;;
18360;SDS011;9308;48.550;9.108;2023-02-13T14:34:55;11.07;;;9.97;;
18360;SDS011;9308;48.550;9.108;2023-02-13T14:37:26;11.47;;;10.37;;
18360;SDS011;9308;48.550;9.108;2023-02-13T14:42:46;11.40;;;10.30;;
18360;SDS011;9308;48.550;9.108;2023-02-13T14:45:17;10.87;;;9.77;;
18360;SDS011;9308;48.550;9.108;2023-02-13T14:47:49;11.80;;;10.40;;
18360;SDS011;9308;48.550;9.108;2023-02-13T14:52:49;11.23;;;10.10;;
18360;SDS011;9308;48.550;9.108;2023-02-13T14:55:19;11.13;;;10.00;;
18360;SDS011;9308;48.550;9.108;2023-02-13T14:58:09;11.37;;;10.20;;
18360;SDS011;9308;48.550;9.108;2023-02-13T15:01:13;10.67;;;9.63;;
18360;SDS011;9308;48.550;9.108;2023-02-13T15:04:08;11.03;;;9.87;;
18360;SDS011;9308;48.550;9.108;2023-02-13T15:06:40;12.10;;;9.90;;
18360;SDS011;9308;48.550;9.108;2023-02-13T15:09:18;11.80;;;10.60;;
18360;SDS011;9308;48.550;9.108;2023-02-13T15:11:44;12.00;;;10.67;;
18360;SDS011;9308;48.550;9.108;2023-02-13T15:14:14;12.50;;;11.20;;
18360;SDS011;9308;48.550;9.108;2023-02-13T15:16:40;12.90;;;11.60;;
18360;SDS011;9308;48.550;9.108;2023-02-13T15:19:10;13.90;;;12.50;;
18360;SDS011;9308;48.550;9.108;2023-02-13T15:21:45;11.97;;;10.77;;
18360;SDS011;9308;48.550;9.108;2023-02-13T15:24:14;11.20;;;10.10;;
18360;SDS011;9308;48.550;9.108;2023-02-13T15:26:39;10.97;;;9.90;;
18360;SDS011;9308;48.550;9.108;2023-02-13T15:29:15;12.53;;;10.70;;
18360;SDS011;9308;48.550;9.108;2023-02-13T15:31:42;11.63;;;9.90;;
18360;SDS011;9308;48.550;9.108;2023-02-13T15:34:18;12.57;;;10.80;;
18360;SDS011;9308;48.550;9.108;2023-02-13T15:36:45;14.13;;;11.90;;
18360;SDS011;9308;48.550;9.108;2023-02-13T15:39:14;16.53;;;11.60;;
18360;SDS011;9308;48.550;9.108;2023-02-13T15:41:44;12.37;;;11.10;;
18360;SDS011;9308;48.550;9.108;2023-02-13T15:44:16;13.53;;;11.03;;
18360;SDS011;9308;48.550;9.108;2023-02-13T15:46:45;13.83;;;11.80;;
18360;SDS011;9308;48.550;9.108;2023-02-13T15:49:14;15.40;;;13.17;;
18360;SDS011;9308;48.550;9.108;2023-02-13T15:51:42;15.20;;;13.47;;
18360;SDS011;9308;48.550;9.108;2023-02-13T15:54:21;16.80;;;13.50;;
18360;SDS011;9308;48.550;9.108;2023-02-13T15:56:49;12.83;;;11.53;;
18360;SDS011;9308;48.550;9.108;2023-02-13T15:59:17;14.00;;;12.37;;
18360;SDS011;9308;48.550;9.108;2023-02-13T16:01:43;14.13;;;11.90;;
18360;SDS011;9308;48.550;9.108;2023-02-13T16:04:11;14.07;;;12.67;;
18360;SDS011;9308;48.550;9.108;2023-02-13T16:06:39;14.77;;;13.27;;
18360;SDS011;9308;48.550;9.108;2023-02-13T16:11:56;15.70;;;14.20;;
18360;SDS011;9308;48.550;9.108;2023-02-13T16:14:28;17.73;;;15.80;;
18360;SDS011;9308;48.550;9.108;2023-02-13T16:16:59;16.67;;;15.00;;
18360;SDS011;9308;48.550;9.108;2023-02-13T16:19:39;17.30;;;13.63;;
18360;SDS011;9308;48.550;9.108;2023-02-13T16:22:29;13.80;;;12.27;;
18360;SDS011;9308;48.550;9.108;2023-02-13T16:27:46;18.37;;;14.80;;
18360;SDS011;9308;48.550;9.108;2023-02-13T16:35:44;15.60;;;13.90;;
18360;SDS011;9308;48.550;9.108;2023-02-13T16:38:24;16.70;;;14.87;;
18360;SDS011;9308;48.550;9.108;2023-02-13T16:40:52;17.40;;;15.30;;
18360;SDS011;9308;48.550;9.108;2023-02-13T16:51:28;19.53;;;15.30;;
18360;SDS011;9308;48.550;9.108;2023-02-13T16:53:56;22.07;;;16.63;;
18360;SDS011;9308;48.550;9.108;2023-02-13T16:56:22;19.23;;;15.77;;
18360;SDS011;9308;48.550;9.108;2023-02-13T16:58:48;18.63;;;16.63;;
18360;SDS011;9308;48.550;9.108;2023-02-13T17:01:13;18.50;;;16.50;;
18360;SDS011;9308;48.550;9.108;2023-02-13T17:03:42;20.53;;;17.13;;
18360;SDS011;9308;48.550;9.108;2023-02-13T17:06:08;24.27;;;20.10;;
18360;SDS011;9308;48.550;9.108;2023-02-13T17:08:34;82.00;;;53.80;;
18360;SDS011;9308;48.550;9.108;2023-02-13T17:11:00;111.20;;;77.40;;
18360;SDS011;9308;48.550;9.108;2023-02-13T17:13:27;88.67;;;65.83;;
18360;SDS011;9308;48.550;9.108;2023-02-13T17:15:53;34.93;;;28.40;;
18360;SDS011;9308;48.550;9.108;2023-02-13T17:18:19;25.13;;;20.83;;
18360;SDS011;9308;48.550;9.108;2023-02-13T17:20:45;24.60;;;19.30;;
18360;SDS011;9308;48.550;9.108;2023-02-13T17:23:15;20.60;;;17.30;;
18360;SDS011;9308;48.550;9.108;2023-02-13T17:25:42;20.53;;;17.50;;
18360;SDS011;9308;48.550;9.108;2023-02-13T17:28:20;19.90;;;17.33;;
18360;SDS011;9308;48.550;9.108;2023-02-13T17:30:49;22.77;;;18.80;;
18360;SDS011;9308;48.550;9.108;2023-02-13T17:33:18;22.10;;;19.17;;
18360;SDS011;9308;48.550;9.108;2023-02-13T17:35:46;22.43;;;18.57;;
18360;SDS011;9308;48.550;9.108;2023-02-13T17:38:12;20.63;;;17.40;;
18360;SDS011;9308;48.550;9.108;2023-02-13T17:40:39;19.47;;;17.17;;
18360;SDS011;9308;48.550;9.108;2023-02-13T17:43:04;19.90;;;16.97;;
18360;SDS011;9308;48.550;9.108;2023-02-13T17:45:31;26.00;;;21.40;;